Time;durP1;ratioP1;P1;durP2;ratioP2;P2;SDS_P1;SDS_P2;PMS_P1;PMS_P2;Temp;Humidity;BMP_temperature;BMP_pressure;BME280_temperature;BME280_humidity;BME280_pressure;Samples;Min_cycle;Max_cycle;Signal;HPM_P1;HPM_P2
2022/07/13 00:01:50;;;;;;;10.03;6.50;;;21.70;37.00;;;;;;2614207;54;20985;-75
2022/07/13 00:07:38;;;;;;;5.87;5.27;;;21.30;44.20;;;;;;2614206;54;20139;-75
2022/07/13 00:13:25;;;;;;;7.87;6.00;;;21.30;44.20;;;;;;2613605;54;20473;-74
2022/07/13 00:19:12;;;;;;;5.63;5.13;;;21.40;41.80;;;;;;2614066;54;20719;-76
2022/07/13 00:24:59;;;;;;;9.50;5.07;;;21.50;36.80;;;;;;2613785;54;21089;-76
2022/07/13 00:28:02;;;;;;;11.60;6.40;;;21.50;35.90;;;;;;2614247;54;20439;-74
2022/07/13 00:40:46;;;;;;;5.47;5.07;;;21.50;36.50;;;;;;2614010;54;20490;-75
2022/07/13 00:46:35;;;;;;;5.40;4.77;;;21.60;35.80;;;;;;2614398;39;20647;-77
2022/07/13 00:52:22;;;;;;;7.00;5.60;;;21.30;70.20;;;;;;2614116;54;20388;-76
2022/07/13 00:58:09;;;;;;;7.20;6.43;;;21.00;99.90;;;;;;2614020;54;20784;-76
2022/07/13 01:03:56;;;;;;;6.07;5.57;;;20.40;99.90;;;;;;2613404;54;20421;-74
2022/07/13 01:09:43;;;;;;;8.50;7.80;;;20.40;99.90;;;;;;2613705;54;20148;-73
2022/07/13 01:15:32;;;;;;;8.63;6.70;;;20.30;99.90;;;;;;2615052;54;20137;-74
2022/07/13 01:21:20;;;;;;;7.80;7.10;;;20.40;99.90;;;;;;2615253;54;20448;-74
2022/07/13 01:27:08;;;;;;;8.17;7.37;;;20.40;99.90;;;;;;2615249;54;20122;-74
2022/07/13 01:32:55;;;;;;;7.03;6.43;;;20.30;99.90;;;;;;2614897;54;20157;-74
2022/07/13 01:38:43;;;;;;;8.53;6.73;;;20.30;99.90;;;;;;2615088;54;20778;-74
2022/07/13 01:44:31;;;;;;;10.00;7.30;;;20.10;99.90;;;;;;2614946;54;20186;-75
2022/07/13 01:50:23;;;;;;;8.37;7.47;;;20.00;99.90;;;;;;2615266;46;20185;-74
2022/07/13 01:56:11;;;;;;;9.70;7.40;;;20.00;99.90;;;;;;2615060;54;20380;-74
2022/07/13 02:02:09;;;;;;;7.50;6.90;;;20.00;99.90;;;;;;2613468;54;21011;-74
2022/07/13 02:07:56;;;;;;;10.30;7.80;;;20.50;99.90;;;;;;2613627;54;20286;-74
2022/07/13 02:13:45;;;;;;;9.53;8.67;;;20.40;99.90;;;;;;2613219;54;20132;-74
2022/07/13 02:19:32;;;;;;;8.27;7.50;;;20.50;99.90;;;;;;2613458;54;21069;-74
2022/07/13 02:28:44;;;;;;;9.40;8.27;;;20.70;99.90;;;;;;2613729;54;20430;-74
2022/07/13 02:34:31;;;;;;;9.10;8.20;;;20.70;99.90;;;;;;2613393;54;20886;-75
2022/07/13 02:40:19;;;;;;;13.00;8.80;;;20.70;99.90;;;;;;2615186;54;20122;-75
2022/07/13 02:46:07;;;;;;;9.73;8.30;;;20.90;99.90;;;;;;2615140;39;20389;-77
2022/07/13 02:51:54;;;;;;;7.70;6.53;;;21.00;99.90;;;;;;2614809;54;20125;-76
2022/07/13 02:57:42;;;;;;;8.00;7.30;;;21.00;99.90;;;;;;2614896;54;20158;-77
2022/07/13 03:03:30;;;;;;;9.63;7.33;;;21.00;99.90;;;;;;2614723;54;20134;-76
2022/07/13 03:09:18;;;;;;;7.67;7.00;;;21.10;99.90;;;;;;2616064;54;20391;-76
2022/07/13 03:15:05;;;;;;;6.93;6.43;;;21.10;98.40;;;;;;2615763;54;20235;-76
2022/07/13 03:20:53;;;;;;;8.17;5.60;;;21.00;95.40;;;;;;2615773;54;20426;-75
2022/07/13 03:26:41;;;;;;;6.23;5.73;;;21.10;92.90;;;;;;2615871;54;20194;-76
2022/07/13 03:32:29;;;;;;;6.40;5.90;;;21.30;86.90;;;;;;2615221;54;20152;-76
2022/07/13 03:38:17;;;;;;;6.80;5.33;;;21.30;90.70;;;;;;2615573;54;20130;-76
2022/07/13 03:44:05;;;;;;;6.40;5.80;;;21.40;87.40;;;;;;2615292;54;20973;-76
2022/07/13 03:49:52;;;;;;;6.23;5.63;;;21.30;86.60;;;;;;2615736;54;20127;-75
2022/07/13 03:55:43;;;;;;;6.07;5.57;;;21.30;90.40;;;;;;2615242;54;20177;-76
2022/07/13 04:01:31;;;;;;;6.60;5.87;;;21.30;89.00;;;;;;2615390;54;20571;-75
2022/07/13 04:07:19;;;;;;;6.47;5.90;;;21.30;91.20;;;;;;2615708;54;20360;-75
2022/07/13 04:13:06;;;;;;;7.10;5.57;;;21.30;88.00;;;;;;2615226;54;20126;-75
2022/07/13 04:18:54;;;;;;;8.63;6.07;;;21.40;87.90;;;;;;2615364;54;20165;-75
2022/07/13 04:24:42;;;;;;;5.80;5.30;;;21.40;88.90;;;;;;2615524;54;20796;-76
2022/07/13 04:30:30;;;;;;;6.60;5.60;;;21.50;82.60;;;;;;2615491;54;20134;-75
2022/07/13 04:36:18;;;;;;;5.80;5.13;;;21.60;77.40;;;;;;2615754;54;20250;-76
2022/07/13 04:42:06;;;;;;;5.00;4.60;;;21.90;72.00;;;;;;2614945;54;20122;-76
2022/07/13 04:47:53;;;;;;;5.47;4.97;;;22.00;59.40;;;;;;2615485;54;20637;-75
2022/07/13 04:53:41;;;;;;;5.60;4.70;;;22.20;55.00;;;;;;2615375;54;20163;-76
2022/07/13 05:09:45;;;;;;;4.67;4.33;;;22.80;39.10;;;;;;2614064;54;20402;-75
2022/07/13 05:15:32;;;;;;;5.20;4.73;;;22.50;43.40;;;;;;2613754;54;20195;-75
2022/07/13 05:21:19;;;;;;;6.10;4.27;;;22.60;36.30;;;;;;2613873;54;20162;-75
2022/07/13 05:27:07;;;;;;;5.10;4.70;;;22.60;35.40;;;;;;2614163;54;20171;-79
2022/07/13 05:32:54;;;;;;;4.70;4.00;;;22.80;32.60;;;;;;2612301;54;20268;-77
2022/07/13 05:38:41;;;;;;;4.67;4.27;;;23.20;27.90;;;;;;2613830;54;20138;-79
2022/07/13 05:44:28;;;;;;;7.10;4.20;;;23.50;26.70;;;;;;2614868;54;20130;-78
2022/07/13 05:50:16;;;;;;;5.93;4.50;;;23.50;24.20;;;;;;2615016;54;20145;-78
2022/07/13 05:56:04;;;;;;;4.00;3.70;;;23.80;22.70;;;;;;2615463;54;20126;-78
2022/07/13 06:02:11;;;;;;;4.47;4.13;;;24.00;20.40;;;;;;2613498;54;20893;-78
2022/07/13 06:07:58;;;;;;;5.43;3.77;;;24.10;19.60;;;;;;2613918;54;20171;-78
2022/07/13 06:13:46;;;;;;;4.27;3.97;;;25.80;6.70;;;;;;2613634;39;20613;-78
2022/07/13 06:19:33;;;;;;;7.50;4.13;;;25.60;4.60;;;;;;2613811;54;21345;-78
2022/07/13 06:25:21;;;;;;;4.10;3.80;;;25.40;2.70;;;;;;2614107;54;20146;-78
2022/07/13 06:28:23;;;;;;;12.03;4.70;;;25.70;3.30;;;;;;2613557;54;21036;-78
2022/07/13 06:30:49;;;;;;;4.50;4.03;;;26.50;1.90;;;;;;2613682;54;20728;-77
2022/07/13 06:36:38;;;;;;;4.30;3.80;;;27.80;1.00;;;;;;2614508;54;20687;-77
2022/07/13 06:42:25;;;;;;;5.30;4.03;;;27.30;1.00;;;;;;2613594;54;20449;-77
2022/07/13 06:48:13;;;;;;;5.83;4.43;;;27.50;1.00;;;;;;2613749;54;20642;-78
2022/07/13 06:54:00;;;;;;;4.47;4.03;;;27.00;1.00;;;;;;2613682;54;20400;-78
2022/07/13 07:13:29;;;;;;;4.80;4.50;;;26.60;1.00;;;;;;2613375;54;20510;-78
2022/07/13 07:19:16;;;;;;;4.67;4.27;;;26.50;1.00;;;;;;2613532;54;20418;-77
2022/07/13 07:25:03;;;;;;;4.40;4.10;;;26.70;1.00;;;;;;2613550;54;20182;-78
2022/07/13 07:30:51;;;;;;;4.97;4.50;;;26.80;1.00;;;;;;2613897;54;20315;-78
2022/07/13 07:36:40;;;;;;;5.27;4.87;;;27.20;1.00;;;;;;2613528;54;20476;-78
2022/07/13 07:42:29;;;;;;;4.70;4.40;;;27.50;1.00;;;;;;2614158;54;20880;-79
2022/07/13 07:48:17;;;;;;;4.80;4.30;;;27.90;1.00;;;;;;2615228;54;20492;-78
2022/07/13 07:54:05;;;;;;;4.47;4.17;;;28.40;1.00;;;;;;2615470;54;20149;-78
2022/07/13 08:10:06;;;;;;;5.27;4.57;;;27.90;1.00;;;;;;2614142;54;20465;-77
2022/07/13 08:15:54;;;;;;;5.30;4.67;;;28.40;1.00;;;;;;2614572;54;20797;-77
2022/07/13 08:21:41;;;;;;;5.80;5.30;;;28.60;1.00;;;;;;2614218;54;21056;-78
2022/07/13 08:27:30;;;;;;;5.73;5.00;;;28.10;1.00;;;;;;2614183;39;20612;-78
2022/07/13 08:33:17;;;;;;;5.13;4.73;;;27.80;1.00;;;;;;2613876;54;20974;-77
2022/07/13 08:39:04;;;;;;;5.33;4.93;;;27.90;1.00;;;;;;2614073;54;20144;-78
2022/07/13 08:44:52;;;;;;;6.43;5.73;;;28.10;1.00;;;;;;2615617;54;20165;-79
2022/07/13 08:50:40;;;;;;;5.97;5.37;;;27.70;1.00;;;;;;2615310;54;20134;-77
2022/07/13 08:56:28;;;;;;;9.27;5.40;;;27.70;1.00;;;;;;2616295;31;20859;-78
2022/07/13 09:26:10;;;;;;;7.37;5.10;;;29.10;1.00;;;;;;2613841;54;20415;-78
2022/07/13 09:31:58;;;;;;;6.13;5.50;;;29.80;1.00;;;;;;2613800;54;20133;-75
2022/07/13 09:41:19;;;;;;;7.53;5.03;;;30.30;1.00;;;;;;2614216;54;20406;-77
2022/07/13 09:47:06;;;;;;;5.20;4.80;;;29.60;1.00;;;;;;2613928;54;20411;-78
2022/07/13 09:52:54;;;;;;;8.80;5.80;;;29.90;1.00;;;;;;2613923;54;20124;-76
2022/07/13 09:58:41;;;;;;;5.63;5.23;;;30.40;1.00;;;;;;2614290;54;20145;-76
2022/07/13 10:04:30;;;;;;;6.90;6.17;;;31.10;1.00;;;;;;2615745;54;20204;-75
2022/07/13 10:13:59;;;;;;;6.23;5.63;;;30.30;1.00;;;;;;2614160;39;20767;-76
2022/07/13 10:19:54;;;;;;;6.37;5.60;;;31.40;1.00;;;;;;2613404;54;20403;-76
2022/07/13 10:25:45;;;;;;;5.90;5.50;;;31.00;1.00;;;;;;2613596;54;20385;-76
2022/07/13 10:31:33;;;;;;;8.57;6.60;;;30.70;1.00;;;;;;2613369;54;20431;-76
2022/07/13 10:37:22;;;;;;;6.30;5.70;;;30.90;1.00;;;;;;2613722;54;20406;-77
2022/07/13 10:43:10;;;;;;;6.30;5.33;;;30.30;1.00;;;;;;2614721;54;21014;-75
2022/07/13 10:48:58;;;;;;;9.07;5.10;;;30.70;1.00;;;;;;2614868;54;20390;-77
2022/07/13 10:55:05;;;;;;;6.87;5.03;;;30.70;1.00;;;;;;2615108;54;20149;-75
2022/07/13 11:00:53;;;;;;;10.23;5.10;;;30.70;1.00;;;;;;2614849;54;20454;-76
2022/07/13 11:06:41;;;;;;;5.20;4.80;;;30.40;1.00;;;;;;2615137;46;20249;-75
2022/07/13 11:12:30;;;;;;;4.90;4.57;;;30.40;1.00;;;;;;2614819;54;20173;-75
2022/07/13 11:18:21;;;;;;;6.97;5.20;;;30.00;1.00;;;;;;2615004;54;20935;-75
2022/07/13 11:30:37;;;;;;;5.00;4.70;;;29.00;1.00;;;;;;2614448;54;20978;-75
2022/07/13 11:39:46;;;;;;;5.27;4.87;;;28.80;1.00;;;;;;2614373;54;20367;-76
2022/07/13 11:45:33;;;;;;;5.33;4.83;;;28.90;1.00;;;;;;2614098;54;20389;-76
2022/07/13 11:51:20;;;;;;;7.27;5.87;;;29.90;1.00;;;;;;2614599;54;20152;-77
2022/07/13 11:57:08;;;;;;;6.40;5.17;;;;;;;;;;2614363;54;20128;-76
2022/07/13 12:13:21;;;;;;;6.73;6.27;;;31.00;1.00;;;;;;2613367;54;20362;-76
2022/07/13 12:19:09;;;;;;;7.60;5.80;;;31.20;1.00;;;;;;2614375;31;20826;-76
2022/07/13 12:24:56;;;;;;;6.33;5.73;;;31.40;1.00;;;;;;2613789;54;20126;-76
2022/07/13 12:31:00;;;;;;;7.03;5.57;;;31.20;1.00;;;;;;2613782;54;20129;-77
2022/07/13 12:36:48;;;;;;;6.90;6.40;;;30.90;1.00;;;;;;2614100;54;20386;-76
2022/07/13 12:49:27;;;;;;;6.40;5.80;;;31.40;1.00;;;;;;2614368;54;20381;-76
2022/07/13 12:58:58;;;;;;;6.60;6.10;;;31.10;1.00;;;;;;2613943;46;20451;-76
2022/07/13 13:05:22;;;;;;;6.10;5.67;;;31.20;1.00;;;;;;2613627;54;20560;-76
2022/07/13 13:14:45;;;;;;;6.83;5.43;;;31.80;1.00;;;;;;2613702;54;20370;-75
2022/07/13 13:23:57;;;;;;;10.60;6.03;;;30.40;1.00;;;;;;2613511;54;20515;-77
2022/07/13 13:35:49;;;;;;;5.60;5.20;;;30.70;1.00;;;;;;2614188;54;20454;-77
2022/07/13 13:41:36;;;;;;;4.87;4.47;;;30.80;1.00;;;;;;2613701;54;20282;-75
2022/07/13 13:47:23;;;;;;;6.03;5.40;;;30.30;1.00;;;;;;2615140;54;20157;-76
2022/07/13 13:53:10;;;;;;;5.60;4.97;;;30.30;1.00;;;;;;2615410;39;20538;-76
2022/07/13 13:58:58;;;;;;;6.13;5.57;;;30.10;1.00;;;;;;2615266;54;20116;-76
2022/07/13 14:08:08;;;;;;;6.67;5.37;;;30.40;1.00;;;;;;2615195;54;20428;-76
2022/07/13 14:13:56;;;;;;;6.93;6.30;;;31.10;1.00;;;;;;2615101;54;20597;-75
2022/07/13 14:19:46;;;;;;;6.90;5.10;;;29.90;1.00;;;;;;2615207;54;20135;-76
2022/07/13 14:25:33;;;;;;;6.70;5.47;;;29.60;1.00;;;;;;2614893;54;20459;-77
2022/07/13 14:31:21;;;;;;;5.20;4.80;;;29.50;1.00;;;;;;2615045;54;20126;-77
2022/07/13 14:37:09;;;;;;;5.67;5.20;;;29.30;1.00;;;;;;2615803;39;20750;-78
2022/07/13 14:42:57;;;;;;;5.63;5.17;;;29.20;1.00;;;;;;2615242;54;20131;-76
2022/07/13 14:48:45;;;;;;;6.30;5.90;;;29.00;1.00;;;;;;2615156;54;20163;-77
2022/07/13 14:54:33;;;;;;;12.83;6.27;;;29.20;1.00;;;;;;2615269;54;20133;-76
2022/07/13 15:00:21;;;;;;;6.43;5.43;;;29.80;1.00;;;;;;2615285;54;20167;-77
2022/07/13 15:06:16;;;;;;;5.60;5.13;;;29.70;1.00;;;;;;2613863;47;20167;-76
2022/07/13 15:12:04;;;;;;;5.03;4.73;;;28.80;1.00;;;;;;2613563;39;20961;-75
2022/07/13 15:17:51;;;;;;;4.97;4.67;;;28.20;1.00;;;;;;2613668;54;20127;-76
2022/07/13 15:23:38;;;;;;;6.53;5.07;;;27.70;1.00;;;;;;2613510;54;20415;-75
2022/07/13 15:29:25;;;;;;;4.37;3.97;;;26.80;1.00;;;;;;2614114;31;20614;-76
2022/07/13 15:35:12;;;;;;;4.30;3.80;;;26.70;1.00;;;;;;2613368;54;20172;-76
2022/07/13 15:50:29;;;;;;;3.60;3.17;;;26.10;1.00;;;;;;2613487;54;20387;-75
2022/07/13 15:56:16;;;;;;;4.70;3.60;;;24.70;11.90;;;;;;2613630;54;20367;-77
2022/07/13 16:02:04;;;;;;;4.07;3.77;;;23.60;18.50;;;;;;2612919;54;20725;-77
2022/07/13 16:11:13;;;;;;;5.33;5.00;;;23.10;21.30;;;;;;2614761;54;20774;-76
2022/07/13 16:17:01;;;;;;;6.47;4.97;;;23.00;19.90;;;;;;2615391;54;20170;-76
2022/07/13 16:22:49;;;;;;;4.00;3.17;;;22.80;22.90;;;;;;2615581;54;20635;-78
2022/07/13 16:28:38;;;;;;;3.57;2.37;;;22.80;17.10;;;;;;2615633;54;20438;-77
2022/07/13 16:34:26;;;;;;;3.17;2.97;;;23.20;10.70;;;;;;2615604;54;20362;-76
2022/07/13 16:40:14;;;;;;;3.20;3.00;;;24.10;3.70;;;;;;2615517;54;20161;-77
2022/07/13 16:46:02;;;;;;;3.23;3.03;;;24.70;1.00;;;;;;2615393;54;20387;-76
2022/07/13 16:51:50;;;;;;;4.00;3.80;;;24.90;1.00;;;;;;2615566;54;20135;-77
2022/07/13 16:57:39;;;;;;;3.00;2.80;;;25.00;1.00;;;;;;2615387;54;20383;-76
2022/07/13 17:03:26;;;;;;;5.00;4.60;;;25.60;1.00;;;;;;2615854;54;20387;-77
2022/07/13 17:09:19;;;;;;;4.50;4.20;;;25.90;1.00;;;;;;2614195;54;20235;-77
2022/07/13 17:15:06;;;;;;;4.07;3.87;;;26.80;1.00;;;;;;2613981;54;20132;-75
2022/07/13 17:20:53;;;;;;;4.30;4.00;;;27.00;1.00;;;;;;2613657;54;20396;-77
2022/07/13 17:26:40;;;;;;;5.00;4.70;;;27.60;1.00;;;;;;2611840;54;20204;-76
2022/07/13 17:32:28;;;;;;;7.43;5.37;;;27.70;1.00;;;;;;2613599;54;20145;-76
2022/07/13 17:38:18;;;;;;;7.13;5.57;;;27.90;1.00;;;;;;2614254;54;20705;-77
2022/07/13 17:44:07;;;;;;;6.33;5.73;;;27.70;1.00;;;;;;2614406;54;20465;-76
2022/07/13 17:49:55;;;;;;;8.03;6.80;;;27.10;1.00;;;;;;2615356;54;20904;-76
2022/07/13 17:55:42;;;;;;;7.07;6.47;;;26.70;1.00;;;;;;2615433;54;20399;-77
2022/07/13 18:01:30;;;;;;;6.80;6.13;;;26.40;1.00;;;;;;2614894;54;20119;-77
2022/07/13 18:17:32;;;;;;;6.83;5.83;;;25.90;1.10;;;;;;2613648;54;20411;-77
2022/07/13 18:29:25;;;;;;;6.73;5.90;;;25.60;2.30;;;;;;2613732;54;20395;-77
2022/07/13 18:35:12;;;;;;;5.87;5.47;;;25.60;3.00;;;;;;2613809;54;20120;-77
2022/07/13 18:40:59;;;;;;;7.20;5.53;;;25.50;3.40;;;;;;2613363;54;20149;-76
2022/07/13 18:46:46;;;;;;;5.80;5.40;;;25.50;3.80;;;;;;2613763;54;20161;-77
2022/07/13 18:52:33;;;;;;;9.67;5.07;;;25.40;4.30;;;;;;2615102;54;20213;-76
2022/07/13 18:58:22;;;;;;;7.63;6.50;;;25.20;5.80;;;;;;2615079;54;20513;-76
2022/07/13 19:04:10;;;;;;;5.93;5.43;;;25.30;5.40;;;;;;2614835;54;20401;-76
2022/07/13 19:13:21;;;;;;;5.97;5.30;;;25.10;6.90;;;;;;2615098;54;20403;-75
2022/07/13 19:19:08;;;;;;;5.83;5.33;;;24.80;9.40;;;;;;2615024;54;20142;-77
2022/07/13 19:31:02;;;;;;;6.17;4.80;;;24.20;9.30;;;;;;2614498;54;20519;-78
2022/07/13 19:36:50;;;;;;;5.93;5.10;;;24.00;8.60;;;;;;2615343;54;20615;-78
2022/07/13 19:42:40;;;;;;;4.57;4.27;;;23.90;8.70;;;;;;2614717;54;20137;-77
2022/07/13 19:48:28;;;;;;;4.60;4.20;;;23.80;7.70;;;;;;2615040;54;20382;-79
2022/07/13 19:54:17;;;;;;;5.33;4.33;;;23.60;7.90;;;;;;2615947;54;20379;-78
2022/07/13 20:00:10;;;;;;;5.00;4.47;;;23.60;8.20;;;;;;2616257;39;20725;-78
2022/07/13 20:05:59;;;;;;;6.40;5.30;;;23.60;8.80;;;;;;2615709;54;20391;-77
2022/07/13 20:08:45;;;;;;;5.13;4.73;;;23.40;9.20;;;;;;2614832;54;20399;-78
2022/07/13 20:21:27;;;;;;;5.17;4.67;;;23.20;10.80;;;;;;2612511;54;20396;-79
2022/07/13 20:27:15;;;;;;;6.03;5.40;;;23.20;11.70;;;;;;2613867;54;20379;-75
2022/07/13 20:33:02;;;;;;;7.30;5.73;;;23.20;12.80;;;;;;2614003;54;20423;-75
2022/07/13 20:38:50;;;;;;;5.53;5.13;;;23.00;15.20;;;;;;2614108;54;20138;-76
2022/07/13 20:44:37;;;;;;;7.80;5.53;;;23.00;17.20;;;;;;2612339;54;20395;-75
2022/07/13 20:50:25;;;;;;;8.13;6.23;;;22.90;18.30;;;;;;2612070;54;20157;-75
2022/07/13 20:56:13;;;;;;;5.63;4.87;;;22.70;21.20;;;;;;2614072;54;20442;-75
2022/07/13 21:02:01;;;;;;;6.07;4.90;;;22.70;23.00;;;;;;2614582;54;20644;-75
2022/07/13 21:07:48;;;;;;;8.13;5.87;;;22.40;26.40;;;;;;2614031;54;20263;-76
2022/07/13 21:13:54;;;;;;;6.60;6.10;;;22.20;29.40;;;;;;2613213;54;20275;-76
2022/07/13 21:19:42;;;;;;;6.00;5.50;;;22.20;31.10;;;;;;2613626;39;20281;-74
2022/07/13 21:31:35;;;;;;;7.63;6.63;;;21.90;40.00;;;;;;2613485;54;20423;-75
2022/07/13 21:37:22;;;;;;;7.90;7.20;;;21.70;43.40;;;;;;2610938;46;20459;-76
2022/07/13 21:43:09;;;;;;;8.13;6.10;;;21.60;48.00;;;;;;2613056;54;20278;-74
2022/07/13 21:48:57;;;;;;;8.50;7.50;;;21.40;54.30;;;;;;2609407;54;20153;-74
2022/07/13 21:54:44;;;;;;;9.97;6.80;;;21.30;60.80;;;;;;2609888;54;20395;-77
2022/07/13 22:00:31;;;;;;;6.57;5.43;;;21.10;69.50;;;;;;2610673;54;20159;-73
2022/07/13 22:10:16;;;;;;;7.00;6.30;;;20.80;81.90;;;;;;2613134;54;20432;-73
2022/07/13 22:16:41;;;;;;;7.13;6.40;;;20.80;80.90;;;;;;2612579;39;20807;-74
2022/07/13 22:26:28;;;;;;;9.73;5.60;;;20.60;87.40;;;;;;2614871;54;20379;-74
2022/07/13 22:32:53;;;;;;;7.00;5.00;;;20.30;92.50;;;;;;2613195;54;20388;-74
2022/07/13 22:39:19;;;;;;;8.10;5.13;;;20.30;92.10;;;;;;2613584;54;20380;-74
2022/07/13 22:45:44;;;;;;;9.90;5.73;;;20.20;93.80;;;;;;2614457;54;20418;-73
2022/07/13 22:52:09;;;;;;;8.00;5.60;;;20.00;99.20;;;;;;2612163;54;20961;-74
2022/07/13 22:58:35;;;;;;;8.10;6.30;;;19.90;99.90;;;;;;2614085;54;20398;-74
2022/07/13 23:05:00;;;;;;;14.20;5.80;;;19.80;99.90;;;;;;2613467;54;20506;-74
2022/07/13 23:21:47;;;;;;;7.37;6.67;;;19.50;99.90;;;;;;2610116;54;20517;-74
2022/07/13 23:28:11;;;;;;;12.77;6.57;;;19.30;99.90;;;;;;2609993;54;20430;-73
2022/07/13 23:33:59;;;;;;;8.37;7.57;;;19.20;99.90;;;;;;2606921;54;20470;-74
2022/07/13 23:39:46;;;;;;;9.80;6.70;;;19.00;99.90;;;;;;2609429;54;20399;-74
2022/07/13 23:45:34;;;;;;;15.53;6.90;;;19.10;99.90;;;;;;2613281;54;20137;-74
2022/07/13 23:51:22;;;;;;;8.20;6.97;;;18.90;99.90;;;;;;2613224;54;20181;-74
2022/07/13 23:54:07;;;;;;;7.57;5.80;;;18.80;99.90;;;;;;2613136;54;20810;-74
2022/07/13 23:56:32;;;;;;;8.97;6.23;;;18.70;99.90;;;;;;2611455;54;20449;-74
